SEH887 LGAV-LGTS
Flight info
| Callsign | SEH887 |
|---|---|
| Flight time | 0h 39m |
| Altitude | 32000 |
| Route | KRO2N KRO UT162 NEVRA UT514 OSMOS OSMOS2F |
| Aircraft | A320/M-SDE1E2E3FGHIJ2J3J4J5M1RWXYZ/LB1D1 |
Departure
| Time | 2026-05-07 13:30 |
|---|---|
| Airport | Athens Eleftherios Venizelos International Airport (LGAV) |
Arrival
| Time | 2026-05-07 14:09 |
|---|---|
| Airport | Thessaloniki Macedonia International Airport (LGTS) |
| Time | Latitude | Longitude | Altitude | Speed | Heading |
|---|---|---|---|---|---|
| 2026-05-07 13:11 | 37.93413 | 23.94657 | 287 ft | 0 kts | 298° |
| 2026-05-07 13:20 | 37.93411 | 23.94661 | 287 ft | 2 kts | 298° |
| 2026-05-07 13:20 | 37.93404 | 23.94677 | 293 ft | 2 kts | 298° |
| 2026-05-07 13:20 | 37.93397 | 23.94694 | 292 ft | 2 kts | 298° |
| 2026-05-07 13:20 | 37.93390 | 23.94711 | 290 ft | 2 kts | 298° |
| 2026-05-07 13:21 | 37.93379 | 23.94731 | 290 ft | 3 kts | 322° |
| 2026-05-07 13:21 | 37.93359 | 23.94743 | 287 ft | 3 kts | 359° |
| 2026-05-07 13:21 | 37.93346 | 23.94742 | 292 ft | 0 kts | 21° |
| 2026-05-07 13:23 | 37.93380 | 23.94760 | 290 ft | 12 kts | 29° |
| 2026-05-07 13:23 | 37.93449 | 23.94848 | 288 ft | 15 kts | 81° |
| 2026-05-07 13:24 | 37.93400 | 23.94955 | 289 ft | 18 kts | 121° |
| 2026-05-07 13:24 | 37.93407 | 23.95063 | 291 ft | 0 kts | 44° |
| 2026-05-07 13:24 | 37.93412 | 23.95063 | 290 ft | 4 kts | 13° |
| 2026-05-07 13:24 | 37.93481 | 23.95117 | 292 ft | 20 kts | 37° |
| 2026-05-07 13:25 | 37.93623 | 23.95254 | 294 ft | 31 kts | 36° |
| 2026-05-07 13:25 | 37.93815 | 23.95431 | 298 ft | 37 kts | 36° |
| 2026-05-07 13:25 | 37.94030 | 23.95639 | 298 ft | 42 kts | 37° |
| 2026-05-07 13:25 | 37.94275 | 23.95871 | 301 ft | 46 kts | 36° |
| 2026-05-07 13:26 | 37.94542 | 23.96126 | 305 ft | 50 kts | 37° |
| 2026-05-07 13:26 | 37.94766 | 23.96337 | 306 ft | 22 kts | 37° |
| 2026-05-07 13:26 | 37.94906 | 23.96470 | 308 ft | 28 kts | 36° |
| 2026-05-07 13:26 | 37.95067 | 23.96625 | 310 ft | 31 kts | 38° |
| 2026-05-07 13:27 | 37.95243 | 23.96791 | 310 ft | 18 kts | 39° |
| 2026-05-07 13:27 | 37.95291 | 23.96913 | 313 ft | 17 kts | 112° |
| 2026-05-07 13:27 | 37.95211 | 23.97019 | 314 ft | 13 kts | 151° |
| 2026-05-07 13:27 | 37.95188 | 23.97012 | 314 ft | 0 kts | 215° |
| 2026-05-07 13:29 | 37.95125 | 23.96955 | 314 ft | 40 kts | 217° |
| 2026-05-07 13:29 | 37.94895 | 23.96737 | 311 ft | 83 kts | 217° |
| 2026-05-07 13:29 | 37.94015 | 23.95904 | 301 ft | 148 kts | 217° |
| 2026-05-07 13:30 | 37.93423 | 23.95344 | 304 ft | 171 kts | 216° |
| 2026-05-07 13:30 | 37.92446 | 23.94444 | 701 ft | 178 kts | 216° |
| 2026-05-07 13:30 | 37.91402 | 23.93519 | 1151 ft | 190 kts | 210° |
| 2026-05-07 13:30 | 37.90173 | 23.92719 | 1463 ft | 208 kts | 205° |
| 2026-05-07 13:31 | 37.88779 | 23.91885 | 1773 ft | 230 kts | 205° |
| 2026-05-07 13:31 | 37.87325 | 23.90990 | 2419 ft | 231 kts | 206° |
| 2026-05-07 13:31 | 37.85872 | 23.90046 | 2898 ft | 240 kts | 207° |
| 2026-05-07 13:31 | 37.84396 | 23.89061 | 3756 ft | 241 kts | 208° |
| 2026-05-07 13:32 | 37.82905 | 23.88062 | 4594 ft | 244 kts | 208° |
| 2026-05-07 13:32 | 37.81394 | 23.87045 | 5521 ft | 248 kts | 208° |
| 2026-05-07 13:32 | 37.79853 | 23.86004 | 6487 ft | 254 kts | 209° |
| 2026-05-07 13:32 | 37.78286 | 23.84963 | 7383 ft | 261 kts | 205° |
| 2026-05-07 13:33 | 37.76450 | 23.84485 | 8005 ft | 281 kts | 178° |
| 2026-05-07 13:33 | 37.74581 | 23.85131 | 8848 ft | 290 kts | 152° |
| 2026-05-07 13:33 | 37.73051 | 23.86812 | 9792 ft | 297 kts | 126° |
| 2026-05-07 13:33 | 37.72196 | 23.89198 | 10547 ft | 309 kts | 102° |
| 2026-05-07 13:34 | 37.72143 | 23.92005 | 10907 ft | 332 kts | 78° |
| 2026-05-07 13:34 | 37.74718 | 23.96969 | 12066 ft | 350 kts | 31° |
| 2026-05-07 13:34 | 37.76849 | 23.98459 | 12910 ft | 353 kts | 25° |
| 2026-05-07 13:35 | 37.78955 | 24.00039 | 13752 ft | 360 kts | 31° |
| 2026-05-07 13:35 | 37.81125 | 24.01726 | 14507 ft | 361 kts | 19° |
| 2026-05-07 13:35 | 37.83551 | 24.02435 | 15208 ft | 357 kts | 359° |
| 2026-05-07 13:35 | 37.86034 | 24.02311 | 15873 ft | 361 kts | 351° |
| 2026-05-07 13:36 | 37.88560 | 24.01970 | 16590 ft | 366 kts | 350° |
| 2026-05-07 13:36 | 37.91118 | 24.01689 | 17000 ft | 371 kts | 352° |
| 2026-05-07 13:36 | 37.93709 | 24.01517 | 17122 ft | 373 kts | 354° |
| 2026-05-07 13:36 | 37.96269 | 24.01427 | 17448 ft | 378 kts | 355° |
| 2026-05-07 13:37 | 37.98898 | 24.01376 | 18219 ft | 381 kts | 355° |
| 2026-05-07 13:37 | 38.01546 | 24.01338 | 18887 ft | 384 kts | 355° |
| 2026-05-07 13:37 | 38.04242 | 24.01301 | 19533 ft | 387 kts | 355° |
| 2026-05-07 13:37 | 38.06950 | 24.01262 | 20185 ft | 390 kts | 355° |
| 2026-05-07 13:38 | 38.09659 | 24.01221 | 20818 ft | 393 kts | 355° |
| 2026-05-07 13:38 | 38.12399 | 24.01177 | 21437 ft | 397 kts | 355° |
| 2026-05-07 13:38 | 38.15177 | 24.01131 | 22077 ft | 400 kts | 355° |
| 2026-05-07 13:38 | 38.17972 | 24.01084 | 22703 ft | 403 kts | 355° |
| 2026-05-07 13:39 | 38.20782 | 24.01036 | 23315 ft | 406 kts | 355° |
| 2026-05-07 13:39 | 38.23620 | 24.00988 | 23908 ft | 409 kts | 355° |
| 2026-05-07 13:39 | 38.26457 | 24.00940 | 24163 ft | 411 kts | 355° |
| 2026-05-07 13:39 | 38.29349 | 24.00892 | 24602 ft | 413 kts | 355° |
| 2026-05-07 13:40 | 38.32183 | 24.00846 | 25196 ft | 413 kts | 355° |
| 2026-05-07 13:40 | 38.35087 | 24.00799 | 25711 ft | 415 kts | 354° |
| 2026-05-07 13:40 | 38.37986 | 24.00750 | 26193 ft | 418 kts | 354° |
| 2026-05-07 13:40 | 38.40918 | 24.00700 | 26668 ft | 421 kts | 354° |
| 2026-05-07 13:41 | 38.43848 | 24.00650 | 27125 ft | 423 kts | 354° |
| 2026-05-07 13:41 | 38.46784 | 24.00600 | 27595 ft | 426 kts | 354° |
| 2026-05-07 13:41 | 38.49767 | 24.00549 | 28020 ft | 428 kts | 355° |
| 2026-05-07 13:41 | 38.52761 | 24.00498 | 28404 ft | 432 kts | 355° |
| 2026-05-07 13:42 | 38.55766 | 24.00447 | 28792 ft | 434 kts | 355° |
| 2026-05-07 13:42 | 38.58813 | 24.00394 | 29210 ft | 437 kts | 355° |
| 2026-05-07 13:42 | 38.61865 | 24.00340 | 29601 ft | 440 kts | 355° |
| 2026-05-07 13:42 | 38.64929 | 24.00286 | 29974 ft | 442 kts | 355° |
| 2026-05-07 13:43 | 38.67984 | 24.00233 | 30308 ft | 445 kts | 355° |
| 2026-05-07 13:43 | 38.71087 | 24.00179 | 30616 ft | 448 kts | 355° |
| 2026-05-07 13:43 | 38.74214 | 24.00125 | 30951 ft | 450 kts | 355° |
| 2026-05-07 13:43 | 38.77357 | 24.00071 | 31270 ft | 452 kts | 355° |
| 2026-05-07 13:44 | 38.80494 | 24.00018 | 31663 ft | 453 kts | 355° |
| 2026-05-07 13:44 | 38.83672 | 23.99964 | 32024 ft | 452 kts | 355° |
| 2026-05-07 13:44 | 38.86810 | 23.99911 | 32116 ft | 452 kts | 355° |
| 2026-05-07 13:45 | 38.93216 | 23.99795 | 32122 ft | 468 kts | 356° |
| 2026-05-07 13:45 | 38.99759 | 23.99683 | 32127 ft | 470 kts | 356° |
| 2026-05-07 13:46 | 39.06304 | 23.99571 | 32126 ft | 472 kts | 356° |
| 2026-05-07 13:46 | 39.12845 | 23.99459 | 32127 ft | 472 kts | 356° |
| 2026-05-07 13:47 | 39.19416 | 23.99345 | 32118 ft | 473 kts | 356° |
| 2026-05-07 13:47 | 39.26012 | 23.99167 | 32124 ft | 472 kts | 352° |
| 2026-05-07 13:48 | 39.32279 | 23.96962 | 32121 ft | 467 kts | 332° |
| 2026-05-07 13:48 | 39.37781 | 23.92556 | 32125 ft | 465 kts | 324° |
| 2026-05-07 13:49 | 39.43140 | 23.88016 | 32124 ft | 450 kts | 324° |
| 2026-05-07 13:49 | 39.48324 | 23.83607 | 32129 ft | 448 kts | 324° |
| 2026-05-07 13:50 | 39.53540 | 23.79156 | 32129 ft | 449 kts | 324° |
| 2026-05-07 13:50 | 39.58730 | 23.74720 | 32126 ft | 450 kts | 324° |
| 2026-05-07 13:51 | 39.63944 | 23.70255 | 32124 ft | 450 kts | 324° |
| 2026-05-07 13:51 | 39.69185 | 23.65761 | 32123 ft | 450 kts | 324° |
| 2026-05-07 13:52 | 39.74413 | 23.61268 | 32125 ft | 451 kts | 324° |
| 2026-05-07 13:52 | 39.79654 | 23.56756 | 32126 ft | 451 kts | 324° |
| 2026-05-07 13:53 | 39.84893 | 23.52237 | 32126 ft | 451 kts | 324° |
| 2026-05-07 13:53 | 39.87500 | 23.49987 | 31950 ft | 448 kts | 324° |
| 2026-05-07 13:53 | 39.90062 | 23.47772 | 31482 ft | 446 kts | 324° |
| 2026-05-07 13:53 | 39.92608 | 23.45570 | 30918 ft | 443 kts | 324° |
| 2026-05-07 13:54 | 39.95156 | 23.43364 | 30344 ft | 439 kts | 324° |
| 2026-05-07 13:54 | 39.97691 | 23.41167 | 29719 ft | 435 kts | 324° |
| 2026-05-07 13:54 | 40.00191 | 23.38995 | 29260 ft | 428 kts | 323° |
| 2026-05-07 13:54 | 40.02661 | 23.36850 | 28828 ft | 425 kts | 323° |
| 2026-05-07 13:55 | 40.05122 | 23.34707 | 28405 ft | 425 kts | 323° |
| 2026-05-07 13:55 | 40.07558 | 23.32581 | 27984 ft | 422 kts | 323° |
| 2026-05-07 13:55 | 40.10013 | 23.30438 | 27559 ft | 418 kts | 323° |
| 2026-05-07 13:55 | 40.12415 | 23.28341 | 27154 ft | 414 kts | 323° |
| 2026-05-07 13:56 | 40.14801 | 23.26255 | 26752 ft | 410 kts | 323° |
| 2026-05-07 13:56 | 40.17155 | 23.24196 | 26340 ft | 407 kts | 322° |
| 2026-05-07 13:56 | 40.19517 | 23.22131 | 25822 ft | 403 kts | 322° |
| 2026-05-07 13:56 | 40.21835 | 23.20104 | 25303 ft | 400 kts | 322° |
| 2026-05-07 13:57 | 40.24138 | 23.18087 | 24767 ft | 396 kts | 322° |
| 2026-05-07 13:57 | 40.26397 | 23.16108 | 24261 ft | 393 kts | 322° |
| 2026-05-07 13:57 | 40.28656 | 23.14125 | 23763 ft | 389 kts | 322° |
| 2026-05-07 13:57 | 40.30901 | 23.12154 | 23198 ft | 386 kts | 322° |
| 2026-05-07 13:58 | 40.33133 | 23.10191 | 22600 ft | 383 kts | 322° |
| 2026-05-07 13:58 | 40.35332 | 23.08255 | 22054 ft | 380 kts | 322° |
| 2026-05-07 13:58 | 40.37522 | 23.06326 | 21503 ft | 377 kts | 322° |
| 2026-05-07 13:58 | 40.39688 | 23.04418 | 20958 ft | 374 kts | 322° |
| 2026-05-07 13:59 | 40.41836 | 23.02524 | 20457 ft | 371 kts | 322° |
| 2026-05-07 13:59 | 40.43979 | 23.00633 | 19928 ft | 368 kts | 322° |
| 2026-05-07 13:59 | 40.46140 | 22.98846 | 19422 ft | 368 kts | 327° |
| 2026-05-07 13:59 | 40.48371 | 22.97405 | 18930 ft | 366 kts | 330° |
| 2026-05-07 14:00 | 40.50656 | 22.95953 | 18430 ft | 363 kts | 330° |
| 2026-05-07 14:00 | 40.52919 | 22.94504 | 17888 ft | 360 kts | 330° |
| 2026-05-07 14:00 | 40.55137 | 22.93080 | 17365 ft | 357 kts | 330° |
| 2026-05-07 14:00 | 40.57353 | 22.91657 | 16843 ft | 354 kts | 329° |
| 2026-05-07 14:01 | 40.59569 | 22.90232 | 16251 ft | 354 kts | 329° |
| 2026-05-07 14:01 | 40.61766 | 22.88818 | 15589 ft | 356 kts | 330° |
| 2026-05-07 14:01 | 40.63998 | 22.87382 | 14935 ft | 358 kts | 330° |
| 2026-05-07 14:01 | 40.66229 | 22.85947 | 14291 ft | 355 kts | 330° |
| 2026-05-07 14:02 | 40.68435 | 22.84530 | 13630 ft | 348 kts | 330° |
| 2026-05-07 14:02 | 40.70591 | 22.83144 | 12927 ft | 341 kts | 330° |
| 2026-05-07 14:02 | 40.72710 | 22.81781 | 12244 ft | 335 kts | 330° |
| 2026-05-07 14:02 | 40.74784 | 22.80448 | 11576 ft | 330 kts | 332° |
| 2026-05-07 14:03 | 40.77018 | 22.79667 | 10787 ft | 336 kts | 353° |
| 2026-05-07 14:03 | 40.79356 | 22.80051 | 10016 ft | 344 kts | 15° |
| 2026-05-07 14:03 | 40.81466 | 22.81571 | 9156 ft | 350 kts | 37° |
| 2026-05-07 14:03 | 40.83037 | 22.84029 | 8325 ft | 352 kts | 60° |
| 2026-05-07 14:04 | 40.83780 | 22.87041 | 7523 ft | 351 kts | 85° |
| 2026-05-07 14:04 | 40.83554 | 22.90204 | 6780 ft | 345 kts | 109° |
| 2026-05-07 14:04 | 40.82399 | 22.92907 | 6030 ft | 336 kts | 134° |
| 2026-05-07 14:04 | 40.80533 | 22.94594 | 5639 ft | 315 kts | 162° |
| 2026-05-07 14:05 | 40.78458 | 22.94896 | 5452 ft | 291 kts | 188° |
| 2026-05-07 14:05 | 40.76525 | 22.94478 | 5273 ft | 273 kts | 191° |
| 2026-05-07 14:05 | 40.74708 | 22.94058 | 5122 ft | 256 kts | 190° |
| 2026-05-07 14:05 | 40.73009 | 22.93713 | 4998 ft | 240 kts | 189° |
| 2026-05-07 14:06 | 40.71374 | 22.93424 | 4827 ft | 233 kts | 188° |
| 2026-05-07 14:06 | 40.69763 | 22.93178 | 4443 ft | 234 kts | 187° |
| 2026-05-07 14:06 | 40.68146 | 22.92979 | 4018 ft | 236 kts | 185° |
| 2026-05-07 14:06 | 40.66490 | 22.92841 | 3684 ft | 234 kts | 181° |
| 2026-05-07 14:07 | 40.64908 | 22.92960 | 3495 ft | 228 kts | 172° |
| 2026-05-07 14:07 | 40.63354 | 22.93367 | 3040 ft | 232 kts | 165° |
| 2026-05-07 14:07 | 40.61773 | 22.93998 | 2318 ft | 247 kts | 162° |
| 2026-05-07 14:07 | 40.60140 | 22.94678 | 1775 ft | 245 kts | 165° |
| 2026-05-07 14:08 | 40.58494 | 22.95099 | 1310 ft | 235 kts | 172° |
| 2026-05-07 14:08 | 40.57020 | 22.95371 | 1299 ft | 192 kts | 167° |
| 2026-05-07 14:08 | 40.55782 | 22.95879 | 953 ft | 179 kts | 161° |
| 2026-05-07 14:08 | 40.54633 | 22.96301 | 575 ft | 164 kts | 170° |
| 2026-05-07 14:09 | 40.53553 | 22.96604 | 211 ft | 155 kts | 169° |
| 2026-05-07 14:09 | 40.52556 | 22.96939 | 44 ft | 137 kts | 170° |
| 2026-05-07 14:09 | 40.51775 | 22.97155 | 26 ft | 69 kts | 166° |
| 2026-05-07 14:09 | 40.51529 | 22.97256 | 29 ft | 31 kts | 136° |
| 2026-05-07 14:10 | 40.51513 | 22.97334 | 29 ft | 0 kts | 82° |